createdAt,value
2023-05-09T00:01:24.561Z,58.64
2023-05-09T00:06:23.574Z,58.19
2023-05-09T00:11:22.847Z,58.15
2023-05-09T00:16:24.073Z,57.77
2023-05-09T00:21:22.860Z,56.65
2023-05-09T00:26:22.342Z,56.93
2023-05-09T00:31:21.608Z,56.30
2023-05-09T00:36:20.472Z,56.33
2023-05-09T00:41:19.395Z,56.22
2023-05-09T00:46:18.471Z,55.90
2023-05-09T00:51:17.960Z,56.34
2023-05-09T00:56:17.174Z,56.25
2023-05-09T01:01:16.776Z,56.88
2023-05-09T01:06:39.777Z,56.39
2023-05-09T01:11:49.043Z,56.08
2023-05-09T01:16:59.363Z,56.31
2023-05-09T01:22:02.178Z,55.96
2023-05-09T01:27:23.399Z,56.57
2023-05-09T01:32:28.205Z,55.92
2023-05-09T01:37:33.061Z,55.98
2023-05-09T01:42:42.631Z,56.54
2023-05-09T01:47:43.300Z,56.77
2023-05-09T01:52:43.951Z,56.64
2023-05-09T01:57:45.047Z,57.39
2023-05-09T02:02:44.727Z,57.70
2023-05-09T02:07:47.240Z,58.48
2023-05-09T02:12:46.110Z,57.30
2023-05-09T02:17:45.114Z,58.50
2023-05-09T02:22:56.260Z,58.05
2023-05-09T02:27:57.544Z,57.67
2023-05-09T02:33:03.661Z,58.90
2023-05-09T02:38:03.331Z,58.86
2023-05-09T02:43:02.233Z,60.02
2023-05-09T02:48:01.237Z,61.75
2023-05-09T02:53:00.079Z,59.61
2023-05-09T02:58:12.089Z,62.14
2023-05-09T03:03:16.128Z,63.56
2023-05-09T03:08:16.049Z,62.01
2023-05-09T03:13:16.018Z,62.55
2023-05-09T03:18:15.052Z,64.06
2023-05-09T03:23:13.889Z,64.64
2023-05-09T03:28:12.883Z,63.35
2023-05-09T03:33:12.041Z,61.23
2023-05-09T03:38:11.187Z,60.02
2023-05-09T03:43:10.064Z,59.86
2023-05-09T03:48:09.831Z,60.79
2023-05-09T03:53:13.632Z,60.79
2023-05-09T03:58:13.622Z,59.23
2023-05-09T04:03:15.004Z,58.87
2023-05-09T04:08:18.262Z,59.71
2023-05-09T04:13:17.366Z,59.56
2023-05-09T04:18:17.459Z,59.37
2023-05-09T04:23:17.250Z,59.03
2023-05-09T04:28:16.992Z,58.94
2023-05-09T04:33:17.100Z,58.42
2023-05-09T04:38:16.809Z,57.46
2023-05-09T04:43:16.090Z,57.40
2023-05-09T04:48:15.019Z,57.29
2023-05-09T04:53:14.297Z,56.50
2023-05-09T04:58:14.050Z,57.59
2023-05-09T05:03:13.868Z,56.11
2023-05-09T05:08:12.963Z,54.79
2023-05-09T05:13:13.823Z,55.07
2023-05-09T05:18:16.805Z,54.75
2023-05-09T05:23:15.966Z,53.61
2023-05-09T05:28:15.253Z,53.84
2023-05-09T05:33:14.617Z,54.29
2023-05-09T05:38:13.645Z,52.01
2023-05-09T05:43:15.245Z,51.73
2023-05-09T05:48:14.630Z,51.28
2023-05-09T05:53:13.740Z,49.25
2023-05-09T05:58:13.847Z,48.84
2023-05-09T06:03:14.441Z,48.42
2023-05-09T06:08:26.110Z,47.58
2023-05-09T06:13:25.172Z,46.23
2023-05-09T06:18:29.607Z,46.34
2023-05-09T06:23:28.523Z,45.84
2023-05-09T06:28:27.351Z,45.46
2023-05-09T06:33:26.114Z,44.69
2023-05-09T06:38:24.906Z,44.20
2023-05-09T06:43:23.656Z,44.09
2023-05-09T06:48:24.025Z,44.04
2023-05-09T06:53:22.982Z,44.04
2023-05-09T06:58:22.030Z,44.73
2023-05-09T07:03:21.029Z,42.64
2023-05-09T07:08:19.957Z,42.92
2023-05-09T07:13:19.040Z,42.91
2023-05-09T07:18:17.902Z,43.67
2023-05-09T07:23:16.768Z,53.87
2023-05-09T07:28:15.636Z,43.89
2023-05-09T07:33:14.623Z,48.46
2023-05-09T07:38:14.004Z,49.07
2023-05-09T07:43:12.880Z,45.24
2023-05-09T07:48:11.786Z,45.35
2023-05-09T07:53:10.681Z,46.52
2023-05-09T07:58:09.526Z,39.42
2023-05-09T08:03:08.790Z,40.70
2023-05-09T08:08:07.988Z,40.29
2023-05-09T08:13:06.760Z,42.85
2023-05-09T08:18:06.506Z,38.97
2023-05-09T08:23:05.666Z,40.53
2023-05-09T08:28:04.679Z,41.00
2023-05-09T08:33:03.800Z,41.43
2023-05-09T08:38:02.617Z,43.53
2023-05-09T08:43:03.045Z,39.93
2023-05-09T08:48:06.699Z,39.37
2023-05-09T08:53:06.527Z,42.09
2023-05-09T08:58:05.833Z,38.38
2023-05-09T09:03:06.693Z,36.77
2023-05-09T09:08:07.761Z,37.65
2023-05-09T09:13:07.498Z,37.71
2023-05-09T09:18:10.075Z,41.50
2023-05-09T09:23:12.814Z,38.93
2023-05-09T09:28:11.686Z,39.97
2023-05-09T09:33:11.111Z,39.53
2023-05-09T09:38:09.957Z,38.38
2023-05-09T09:43:09.835Z,38.68
2023-05-09T09:48:08.883Z,40.02
2023-05-09T09:53:08.087Z,40.17
2023-05-09T09:58:17.418Z,36.55
2023-05-09T10:03:17.751Z,37.07
2023-05-09T10:08:17.249Z,37.33
2023-05-09T10:13:16.166Z,38.12
2023-05-09T10:18:19.816Z,38.88
2023-05-09T10:23:19.895Z,35.03
2023-05-09T10:28:27.570Z,36.42
2023-05-09T10:33:34.301Z,33.08
2023-05-09T10:38:33.391Z,33.41
2023-05-09T10:43:34.739Z,34.07
2023-05-09T10:48:36.323Z,34.92
2023-05-09T10:53:46.555Z,33.48
2023-05-09T10:58:48.066Z,32.19
2023-05-09T11:03:58.297Z,36.24
2023-05-09T11:08:57.154Z,34.24
2023-05-09T11:13:58.297Z,33.56
2023-05-09T11:18:57.154Z,31.35
2023-05-09T11:23:56.003Z,32.33
2023-05-09T11:28:55.098Z,32.32
2023-05-09T11:34:04.710Z,32.13
2023-05-09T11:39:08.944Z,30.57
2023-05-09T11:44:19.747Z,32.71
2023-05-09T11:49:19.635Z,29.74
2023-05-09T11:54:18.470Z,29.96
2023-05-09T11:59:19.079Z,30.28
2023-05-09T12:04:18.075Z,30.93
2023-05-09T12:09:16.925Z,29.90
2023-05-09T12:14:28.146Z,31.24
2023-05-09T12:19:27.673Z,31.28
2023-05-09T12:24:27.919Z,29.52
2023-05-09T12:29:27.231Z,28.67
2023-05-09T12:34:26.376Z,29.34
2023-05-09T12:39:26.758Z,29.08
2023-05-09T12:44:26.652Z,29.57
2023-05-09T12:49:26.093Z,29.80
2023-05-09T12:54:29.710Z,29.38
2023-05-09T12:59:29.145Z,29.01
2023-05-09T13:04:28.998Z,29.33
2023-05-09T13:09:27.990Z,29.46
2023-05-09T13:14:26.963Z,30.03
2023-05-09T13:19:26.057Z,28.92
2023-05-09T13:24:24.786Z,29.81
2023-05-09T13:29:23.572Z,26.59
2023-05-09T13:34:22.369Z,27.48
2023-05-09T13:39:21.233Z,28.10
2023-05-09T13:44:20.042Z,29.25
2023-05-09T13:49:19.707Z,27.80
2023-05-09T13:54:19.842Z,28.51
2023-05-09T13:59:18.716Z,27.69
2023-05-09T14:04:17.538Z,29.38
2023-05-09T14:09:17.329Z,28.42
2023-05-09T14:14:16.250Z,28.85
2023-05-09T14:19:15.949Z,28.38
2023-05-09T14:24:16.285Z,29.12
2023-05-09T14:29:16.759Z,29.61
2023-05-09T14:34:15.769Z,29.79
2023-05-09T14:39:14.554Z,29.87
2023-05-09T14:44:13.474Z,29.79
2023-05-09T14:49:12.445Z,29.26
2023-05-09T14:54:11.356Z,30.17
2023-05-09T14:59:10.345Z,29.46
2023-05-09T15:04:09.505Z,29.02
2023-05-09T15:09:08.651Z,30.49
2023-05-09T15:14:07.450Z,29.26
2023-05-09T15:19:06.385Z,28.48
2023-05-09T15:24:05.598Z,28.84
2023-05-09T15:29:04.360Z,29.83
2023-05-09T15:34:03.432Z,31.26
2023-05-09T15:39:02.225Z,30.44
2023-05-09T15:44:01.199Z,30.62
2023-05-09T15:49:00.154Z,30.47
2023-05-09T15:53:58.979Z,31.48
2023-05-09T15:58:58.400Z,32.00
2023-05-09T16:03:57.389Z,31.66
2023-05-09T16:08:56.534Z,31.76
2023-05-09T16:13:55.858Z,32.63
2023-05-09T16:18:54.782Z,31.90
2023-05-09T16:23:53.654Z,31.59
2023-05-09T16:28:52.756Z,31.37
2023-05-09T16:33:51.882Z,30.64
2023-05-09T16:38:50.842Z,31.21
2023-05-09T16:43:49.628Z,31.57
2023-05-09T16:48:51.773Z,31.52
2023-05-09T16:53:50.624Z,32.66
2023-05-09T16:58:50.012Z,32.74
2023-05-09T17:03:48.857Z,33.52
2023-05-09T17:08:48.846Z,32.10
2023-05-09T17:13:47.587Z,33.08
2023-05-09T17:18:47.470Z,34.62
2023-05-09T17:23:46.178Z,34.38
2023-05-09T17:28:44.958Z,33.72
2023-05-09T17:33:43.930Z,33.57
2023-05-09T17:38:42.879Z,33.02
2023-05-09T17:43:41.919Z,33.64
2023-05-09T17:48:40.774Z,33.77
2023-05-09T17:53:39.511Z,34.48
2023-05-09T17:58:38.249Z,33.90
2023-05-09T18:03:37.142Z,34.33
2023-05-09T18:08:36.888Z,34.46
2023-05-09T18:13:35.861Z,34.84
2023-05-09T18:18:36.534Z,35.68
2023-05-09T18:23:35.394Z,35.95
2023-05-09T18:28:39.422Z,36.17
2023-05-09T18:33:39.162Z,36.74
2023-05-09T18:38:38.719Z,37.06
2023-05-09T18:43:42.064Z,37.41
2023-05-09T18:48:41.368Z,38.40
2023-05-09T18:53:40.508Z,38.18
2023-05-09T18:58:39.379Z,38.65
2023-05-09T19:03:45.945Z,38.97
2023-05-09T19:08:46.201Z,39.01
2023-05-09T19:13:48.864Z,39.27
2023-05-09T19:18:48.696Z,39.29
2023-05-09T19:23:50.631Z,39.55
2023-05-09T19:28:49.512Z,39.55
2023-05-09T19:33:49.547Z,40.21
2023-05-09T19:38:48.358Z,40.68
2023-05-09T19:43:48.757Z,41.17
2023-05-09T19:48:47.583Z,41.26
2023-05-09T19:53:46.988Z,41.47
2023-05-09T19:58:49.584Z,41.99
2023-05-09T20:03:50.688Z,42.20
2023-05-09T20:08:52.117Z,42.25
2023-05-09T20:13:50.965Z,42.88
2023-05-09T20:18:52.288Z,43.60
2023-05-09T20:23:51.098Z,43.12
2023-05-09T20:28:49.860Z,43.11
2023-05-09T20:33:48.645Z,43.56
2023-05-09T20:38:47.378Z,43.38
2023-05-09T20:43:46.224Z,43.19
2023-05-09T20:48:45.021Z,43.98
2023-05-09T20:53:43.898Z,43.58
2023-05-09T20:58:42.700Z,43.43
2023-05-09T21:03:41.623Z,44.05
2023-05-09T21:08:43.384Z,43.78
2023-05-09T21:13:42.158Z,43.68
2023-05-09T21:18:40.944Z,44.40
2023-05-09T21:23:40.951Z,44.40
2023-05-09T21:28:39.823Z,44.36
2023-05-09T21:33:38.755Z,44.32
2023-05-09T21:38:38.057Z,43.85
2023-05-09T21:43:37.726Z,44.45
2023-05-09T21:48:36.627Z,44.59
2023-05-09T21:53:35.541Z,44.40
2023-05-09T21:58:34.353Z,44.68
2023-05-09T22:03:33.688Z,45.15
2023-05-09T22:08:32.985Z,44.95
2023-05-09T22:13:31.823Z,45.18
2023-05-09T22:18:31.795Z,45.25
2023-05-09T22:23:30.602Z,45.52
2023-05-09T22:28:29.400Z,46.17
2023-05-09T22:33:28.167Z,46.27
2023-05-09T22:38:27.082Z,46.70
2023-05-09T22:43:28.879Z,46.17
2023-05-09T22:48:35.672Z,47.16
2023-05-09T22:53:34.405Z,47.03
2023-05-09T22:58:33.570Z,46.74
2023-05-09T23:03:32.459Z,47.31
2023-05-09T23:08:31.389Z,46.93
2023-05-09T23:13:30.417Z,47.45
2023-05-09T23:18:29.411Z,47.36
2023-05-09T23:23:28.819Z,47.52
2023-05-09T23:28:27.588Z,47.68
2023-05-09T23:33:26.318Z,48.14
2023-05-09T23:38:25.050Z,47.33
2023-05-09T23:43:24.508Z,48.01
2023-05-09T23:48:23.930Z,47.51
2023-05-09T23:53:22.753Z,47.50
2023-05-09T23:58:21.510Z,47.51
